createdAt,value
2022-08-17T00:03:06.052Z,22.32
2022-08-17T00:08:08.227Z,22.34
2022-08-17T00:13:18.447Z,22.38
2022-08-17T00:19:01.092Z,22.35
2022-08-17T00:23:46.219Z,22.37
2022-08-17T00:28:51.225Z,22.35
2022-08-17T00:33:54.486Z,22.35
2022-08-17T00:38:55.978Z,22.32
2022-08-17T00:44:01.127Z,22.28
2022-08-17T00:49:03.773Z,22.26
2022-08-17T00:54:20.448Z,22.34
2022-08-17T00:59:24.942Z,22.47
2022-08-17T01:04:29.347Z,22.56
2022-08-17T01:09:33.885Z,22.48
2022-08-17T01:14:35.517Z,22.07
2022-08-17T01:19:43.217Z,21.61
2022-08-17T01:24:49.774Z,21.35
2022-08-17T01:29:57.881Z,21.11
2022-08-17T01:35:02.957Z,20.95
2022-08-17T01:40:35.277Z,20.67
2022-08-17T01:45:44.626Z,20.61
2022-08-17T01:50:48.558Z,20.57
2022-08-17T01:56:07.155Z,20.40
2022-08-17T02:01:10.262Z,20.26
2022-08-17T02:06:12.182Z,20.18
2022-08-17T02:11:29.688Z,20.13
2022-08-17T02:16:37.406Z,20.12
2022-08-17T02:21:41.524Z,20.07
2022-08-17T02:26:43.200Z,19.99
2022-08-17T02:31:45.838Z,19.95
2022-08-17T02:36:47.680Z,19.95
2022-08-17T02:41:49.287Z,20.00
2022-08-17T02:46:51.813Z,20.00
2022-08-17T02:51:53.316Z,20.00
2022-08-17T02:56:55.062Z,19.96
2022-08-17T03:01:56.893Z,19.91
2022-08-17T03:06:58.670Z,19.96
2022-08-17T03:12:09.097Z,20.04
2022-08-17T03:17:17.169Z,20.11
2022-08-17T03:22:35.548Z,20.04
2022-08-17T03:27:39.517Z,19.91
2022-08-17T03:32:49.216Z,19.91
2022-08-17T03:37:59.974Z,19.97
2022-08-17T03:43:08.014Z,20.06
2022-08-17T03:48:29.599Z,20.10
2022-08-17T03:53:49.696Z,20.16
2022-08-17T03:58:51.182Z,20.26
2022-08-17T04:03:52.741Z,20.36
2022-08-17T04:08:54.275Z,20.50
2022-08-17T04:13:56.774Z,20.65
2022-08-17T04:18:58.313Z,20.79
2022-08-17T04:24:00.210Z,20.85
2022-08-17T04:29:03.769Z,20.92
2022-08-17T04:34:05.459Z,21.08
2022-08-17T04:39:07.007Z,21.33
2022-08-17T04:44:08.603Z,21.59
2022-08-17T04:49:11.365Z,21.90
2022-08-17T04:54:18.487Z,22.40
2022-08-17T04:59:22.205Z,22.36
2022-08-17T05:04:34.153Z,22.46
2022-08-17T05:09:36.732Z,22.67
2022-08-17T05:14:39.535Z,22.87
2022-08-17T05:19:41.678Z,23.04
2022-08-17T05:24:53.402Z,23.23
2022-08-17T05:29:55.815Z,23.43
2022-08-17T05:35:00.040Z,23.70
2022-08-17T05:40:01.751Z,23.97
2022-08-17T05:45:07.231Z,24.04
2022-08-17T05:50:13.409Z,24.53
2022-08-17T05:55:34.998Z,26.84
2022-08-17T06:01:10.263Z,27.55
2022-08-17T06:06:31.872Z,27.31
2022-08-17T06:11:46.892Z,26.87
2022-08-17T06:17:01.085Z,26.30
2022-08-17T06:22:05.793Z,25.66
2022-08-17T06:27:19.658Z,25.08
2022-08-17T06:32:21.285Z,24.74
2022-08-17T06:37:44.046Z,24.66
2022-08-17T06:43:22.574Z,24.25
2022-08-17T06:48:39.399Z,23.55
2022-08-17T06:53:55.525Z,23.11
2022-08-17T06:58:58.973Z,23.20
2022-08-17T07:04:14.222Z,23.33
2022-08-17T07:09:35.767Z,23.28
2022-08-17T07:14:52.815Z,23.40
2022-08-17T07:20:05.347Z,23.79
2022-08-17T07:25:13.320Z,24.28
2022-08-17T07:30:21.966Z,24.91
2022-08-17T07:35:31.241Z,25.00
2022-08-17T07:41:02.070Z,24.80
2022-08-17T07:46:31.191Z,24.78
2022-08-17T07:51:37.411Z,24.98
2022-08-17T07:56:45.458Z,24.91
2022-08-17T08:02:26.435Z,24.59
2022-08-17T08:07:38.711Z,24.02
2022-08-17T08:12:46.727Z,23.46
2022-08-17T08:17:53.375Z,23.07
2022-08-17T08:23:23.313Z,22.95
2022-08-17T08:28:33.989Z,23.03
2022-08-17T08:33:56.345Z,23.10
2022-08-17T08:39:06.364Z,23.05
2022-08-17T08:44:13.920Z,23.26
2022-08-17T08:50:03.238Z,23.58
2022-08-17T08:55:24.652Z,24.15
2022-08-17T09:00:27.748Z,24.42
2022-08-17T09:05:52.741Z,24.54
2022-08-17T09:12:01.405Z,24.67
2022-08-17T09:17:09.384Z,24.71
2022-08-17T09:22:33.467Z,24.44
2022-08-17T09:27:53.492Z,24.36
2022-08-17T09:33:02.226Z,24.13
2022-08-17T09:38:32.711Z,23.87
2022-08-17T09:43:56.704Z,23.72
2022-08-17T09:49:09.763Z,23.40
2022-08-17T09:54:39.943Z,23.18
2022-08-17T09:59:44.785Z,22.89
2022-08-17T10:04:55.063Z,22.97
2022-08-17T10:09:56.544Z,23.22
2022-08-17T10:15:49.535Z,24.67
2022-08-17T10:21:26.354Z,25.67
2022-08-17T10:26:46.282Z,25.85
2022-08-17T10:32:05.955Z,26.56
2022-08-17T10:37:13.105Z,26.38
2022-08-17T10:42:30.535Z,26.29
2022-08-17T10:48:22.283Z,26.53
2022-08-17T10:53:32.862Z,26.92
2022-08-17T10:58:45.319Z,27.22
2022-08-17T11:03:56.698Z,27.48
2022-08-17T11:09:10.982Z,27.32
2022-08-17T11:14:48.478Z,26.95
2022-08-17T11:19:58.701Z,26.73
2022-08-17T11:25:18.983Z,27.10
2022-08-17T11:30:41.060Z,27.38
2022-08-17T11:35:51.484Z,27.32
2022-08-17T11:41:08.257Z,27.67
2022-08-17T11:47:06.169Z,28.23
2022-08-17T11:52:32.252Z,28.26
2022-08-17T11:57:34.086Z,28.14
2022-08-17T12:02:47.393Z,27.61
2022-08-17T12:07:57.502Z,27.34
2022-08-17T12:13:04.468Z,27.30
2022-08-17T12:18:05.917Z,27.48
2022-08-17T12:23:33.798Z,28.33
2022-08-17T12:28:38.949Z,29.44
2022-08-17T12:33:44.514Z,29.99
2022-08-17T12:39:14.071Z,30.54
2022-08-17T12:44:23.183Z,30.99
2022-08-17T12:49:29.951Z,31.21
2022-08-17T12:54:57.205Z,30.94
2022-08-17T13:00:02.878Z,30.32
2022-08-17T13:05:05.606Z,29.72
2022-08-17T13:10:07.146Z,29.13
2022-08-17T13:15:19.642Z,28.87
2022-08-17T13:20:21.165Z,28.75
2022-08-17T13:25:23.232Z,28.88
2022-08-17T13:30:29.104Z,29.10
2022-08-17T13:35:39.398Z,29.51
2022-08-17T13:40:53.052Z,29.88
2022-08-17T13:46:09.250Z,30.17
2022-08-17T13:51:23.952Z,30.40
2022-08-17T13:56:38.250Z,30.77
2022-08-17T14:01:53.850Z,30.93
2022-08-17T14:07:24.003Z,30.78
2022-08-17T14:12:27.458Z,30.86
2022-08-17T14:17:35.002Z,31.21
2022-08-17T14:22:44.988Z,31.77
2022-08-17T14:27:53.557Z,32.13
2022-08-17T14:32:56.526Z,32.03
2022-08-17T14:37:59.230Z,31.48
2022-08-17T14:43:01.298Z,31.38
2022-08-17T14:48:07.576Z,31.29
2022-08-17T14:53:12.717Z,31.14
2022-08-17T14:58:14.206Z,31.42
2022-08-17T15:03:16.893Z,31.07
2022-08-17T15:08:19.551Z,30.84
2022-08-17T15:13:26.485Z,31.19
2022-08-17T15:18:29.464Z,31.48
2022-08-17T15:23:31.898Z,31.26
2022-08-17T15:28:33.928Z,30.90
2022-08-17T15:33:35.689Z,30.70
2022-08-17T15:38:41.137Z,30.69
2022-08-17T15:43:48.534Z,30.70
2022-08-17T15:48:54.830Z,30.41
2022-08-17T15:54:04.524Z,30.31
2022-08-17T15:59:20.937Z,30.22
2022-08-17T16:04:29.883Z,30.12
2022-08-17T16:09:32.613Z,30.00
2022-08-17T16:14:35.038Z,29.90
2022-08-17T16:19:38.845Z,29.87
2022-08-17T16:24:56.808Z,29.80
2022-08-17T16:29:58.831Z,29.73
2022-08-17T16:35:09.730Z,29.58
2022-08-17T16:40:11.961Z,29.46
2022-08-17T16:45:16.997Z,29.36
2022-08-17T16:50:21.751Z,29.30
2022-08-17T16:55:23.330Z,29.25
2022-08-17T17:00:24.765Z,29.22
2022-08-17T17:05:57.730Z,29.20
2022-08-17T17:11:08.998Z,29.16
2022-08-17T17:16:26.364Z,29.07
2022-08-17T17:21:37.688Z,28.94
2022-08-17T17:26:45.533Z,28.82
2022-08-17T17:32:13.657Z,28.71
2022-08-17T17:37:26.309Z,28.57
2022-08-17T17:42:31.515Z,28.48
2022-08-17T17:47:33.270Z,28.37
2022-08-17T17:52:56.352Z,28.24
2022-08-17T17:58:05.183Z,28.13
2022-08-17T18:03:25.279Z,28.05
2022-08-17T18:08:49.207Z,27.98
2022-08-17T18:14:02.415Z,27.86
2022-08-17T18:19:03.930Z,27.71
2022-08-17T18:24:08.854Z,27.54
2022-08-17T18:29:16.015Z,27.38
2022-08-17T18:34:46.047Z,27.12
2022-08-17T18:39:46.521Z,26.80
2022-08-17T18:44:51.742Z,26.56
2022-08-17T18:50:33.586Z,26.41
2022-08-17T18:55:35.306Z,26.31
2022-08-17T19:00:41.491Z,26.18
2022-08-17T19:05:45.998Z,26.05
2022-08-17T19:10:51.255Z,25.98
2022-08-17T19:16:20.067Z,25.90
2022-08-17T19:21:27.438Z,25.77
2022-08-17T19:26:54.392Z,25.65
2022-08-17T19:31:58.745Z,25.50
2022-08-17T19:37:07.487Z,25.43
2022-08-17T19:42:32.462Z,25.40
2022-08-17T19:47:57.857Z,25.30
2022-08-17T19:53:33.215Z,25.15
2022-08-17T19:59:01.228Z,25.00
2022-08-17T20:04:14.430Z,24.91
2022-08-17T20:09:29.604Z,24.79
2022-08-17T20:14:53.258Z,24.66
2022-08-17T20:20:07.549Z,24.59
2022-08-17T20:25:38.018Z,24.59
2022-08-17T20:30:42.080Z,24.52
2022-08-17T20:36:01.978Z,24.35
2022-08-17T20:41:03.900Z,24.30
2022-08-17T20:46:43.926Z,24.21
2022-08-17T20:52:02.327Z,24.20
2022-08-17T20:57:06.796Z,24.24
2022-08-17T21:02:21.610Z,24.22
2022-08-17T21:07:43.580Z,24.24
2022-08-17T21:12:57.886Z,24.30
2022-08-17T21:18:25.951Z,24.33
2022-08-17T21:23:40.319Z,24.29
2022-08-17T21:29:30.306Z,24.22
2022-08-17T21:34:33.723Z,24.23
2022-08-17T21:39:40.500Z,24.27
2022-08-17T21:44:49.372Z,24.32
2022-08-17T21:49:56.520Z,24.36
2022-08-17T21:55:03.284Z,24.32
2022-08-17T22:00:15.607Z,24.25
2022-08-17T22:05:28.933Z,24.19
2022-08-17T22:10:46.287Z,24.15
2022-08-17T22:15:50.999Z,24.07
2022-08-17T22:20:56.039Z,24.00
2022-08-17T22:26:04.327Z,23.94
2022-08-17T22:31:07.349Z,23.87
2022-08-17T22:36:26.863Z,23.81
2022-08-17T22:41:52.129Z,23.72
2022-08-17T22:47:01.826Z,23.66
2022-08-17T22:52:16.733Z,23.55
2022-08-17T22:57:43.599Z,23.39
2022-08-17T23:03:09.396Z,23.10
2022-08-17T23:08:13.561Z,22.89
2022-08-17T23:13:15.075Z,22.70
2022-08-17T23:18:17.580Z,22.47
2022-08-17T23:23:23.399Z,22.30
2022-08-17T23:28:25.203Z,22.11
2022-08-17T23:33:30.584Z,21.96
2022-08-17T23:38:33.237Z,21.78
2022-08-17T23:43:36.343Z,21.70
2022-08-17T23:48:38.172Z,21.63
2022-08-17T23:53:46.144Z,21.57
2022-08-17T23:58:47.565Z,21.56
